createdAt,value
2018-10-12T00:00:51.152Z,99.90
2018-10-12T00:03:20.364Z,99.90
2018-10-12T00:05:49.585Z,1.00
2018-10-12T00:08:18.800Z,1.00
2018-10-12T00:10:47.999Z,99.90
2018-10-12T00:13:17.231Z,99.90
2018-10-12T00:15:46.438Z,99.90
2018-10-12T00:18:15.664Z,99.90
2018-10-12T00:20:44.902Z,99.90
2018-10-12T00:23:14.131Z,99.90
2018-10-12T00:25:43.340Z,99.90
2018-10-12T00:28:12.551Z,99.90
2018-10-12T00:30:41.763Z,99.90
2018-10-12T00:33:11.013Z,99.90
2018-10-12T00:35:40.204Z,99.90
2018-10-12T00:38:09.463Z,99.90
2018-10-12T00:40:38.635Z,99.90
2018-10-12T00:43:07.846Z,99.90
2018-10-12T00:45:37.076Z,99.90
2018-10-12T00:48:06.294Z,99.90
2018-10-12T00:50:35.516Z,99.90
2018-10-12T00:53:04.728Z,99.90
2018-10-12T00:55:34.670Z,99.90
2018-10-12T00:58:03.892Z,99.90
2018-10-12T01:00:33.119Z,99.90
2018-10-12T01:03:02.324Z,99.90
2018-10-12T01:05:31.543Z,99.90
2018-10-12T01:08:00.726Z,99.90
2018-10-12T01:10:29.915Z,99.90
2018-10-12T01:12:59.118Z,99.90
2018-10-12T01:15:28.320Z,99.90
2018-10-12T01:17:57.503Z,99.90
2018-10-12T01:20:26.698Z,99.90
2018-10-12T01:22:55.888Z,99.90
2018-10-12T01:25:25.087Z,99.90
2018-10-12T01:27:54.266Z,99.90
2018-10-12T01:30:23.548Z,99.90
2018-10-12T01:32:57.941Z,99.90
2018-10-12T01:35:27.175Z,99.90
2018-10-12T01:37:56.307Z,99.90
2018-10-12T01:40:25.495Z,8.90
2018-10-12T01:42:54.706Z,1.00
2018-10-12T01:45:24.512Z,1.00
2018-10-12T01:47:53.702Z,1.00
2018-10-12T01:50:22.889Z,1.00
2018-10-12T01:52:52.080Z,99.90
2018-10-12T01:55:21.266Z,99.90
2018-10-12T01:57:50.475Z,99.90
2018-10-12T02:00:19.655Z,99.90
2018-10-12T02:02:48.856Z,99.90
2018-10-12T02:05:18.042Z,1.00
2018-10-12T02:07:47.257Z,1.00
2018-10-12T02:10:16.447Z,1.00
2018-10-12T02:12:45.647Z,1.00
2018-10-12T02:15:14.836Z,1.00
2018-10-12T02:17:44.026Z,1.00
2018-10-12T02:20:13.561Z,1.00
2018-10-12T02:22:43.144Z,99.90
2018-10-12T02:25:12.641Z,1.00
2018-10-12T02:27:41.830Z,1.00
2018-10-12T02:30:11.044Z,1.00
2018-10-12T02:32:40.231Z,1.00
2018-10-12T02:35:09.454Z,99.90
2018-10-12T02:37:38.639Z,1.00
2018-10-12T02:40:07.816Z,99.90
2018-10-12T02:42:37.006Z,1.00
2018-10-12T02:45:06.204Z,93.20
2018-10-12T02:47:35.396Z,1.00
2018-10-12T02:50:04.749Z,99.90
2018-10-12T02:52:34.022Z,1.00
2018-10-12T02:55:03.231Z,76.30
2018-10-12T02:57:32.435Z,99.90
2018-10-12T03:00:01.627Z,99.90
2018-10-12T03:02:30.838Z,1.00
2018-10-12T03:05:00.070Z,99.90
2018-10-12T03:07:29.311Z,1.00
2018-10-12T03:09:58.516Z,99.90
2018-10-12T03:12:27.728Z,99.90
2018-10-12T03:14:57.162Z,1.00
2018-10-12T03:17:26.335Z,69.20
2018-10-12T03:19:55.527Z,99.90
2018-10-12T03:22:24.700Z,99.90
2018-10-12T03:24:53.899Z,99.90
2018-10-12T03:27:23.092Z,99.90
2018-10-12T03:29:52.288Z,99.90
2018-10-12T03:32:21.471Z,99.90
2018-10-12T03:34:50.662Z,99.90
2018-10-12T03:37:19.975Z,99.90
2018-10-12T03:39:49.118Z,99.90
2018-10-12T03:42:18.291Z,99.90
2018-10-12T03:44:47.487Z,99.90
2018-10-12T03:47:16.679Z,99.90
2018-10-12T03:49:45.879Z,99.90
2018-10-12T03:52:15.055Z,99.90
2018-10-12T03:54:44.247Z,99.90
2018-10-12T03:57:13.431Z,99.90
2018-10-12T03:59:42.627Z,99.90
2018-10-12T04:02:11.820Z,99.90
2018-10-12T04:04:41.011Z,99.90
2018-10-12T04:07:10.191Z,99.90
2018-10-12T04:09:39.444Z,68.40
2018-10-12T04:12:08.699Z,99.90
2018-10-12T04:14:37.904Z,99.90
2018-10-12T04:17:07.090Z,99.90
2018-10-12T04:19:36.275Z,1.00
2018-10-12T04:22:05.487Z,1.00
2018-10-12T04:24:34.688Z,1.00
2018-10-12T04:27:03.871Z,1.00
2018-10-12T04:29:33.065Z,99.90
2018-10-12T04:32:02.243Z,1.00
2018-10-12T04:34:31.428Z,1.00
2018-10-12T04:37:00.620Z,1.00
2018-10-12T04:39:58.088Z,1.00
2018-10-12T04:42:27.266Z,1.00
2018-10-12T04:44:56.707Z,1.00
2018-10-12T04:47:28.914Z,1.00
2018-10-12T04:49:59.097Z,1.00
2018-10-12T04:52:31.167Z,1.00
2018-10-12T04:55:00.380Z,1.00
2018-10-12T04:57:29.563Z,1.00
2018-10-12T04:59:58.763Z,1.00
2018-10-12T05:02:28.002Z,1.00
2018-10-12T05:04:57.192Z,1.00
2018-10-12T05:07:26.384Z,1.00
2018-10-12T05:09:55.575Z,1.00
2018-10-12T05:12:24.767Z,1.00
2018-10-12T05:14:53.939Z,1.00
2018-10-12T05:17:23.131Z,1.00
2018-10-12T05:19:52.327Z,1.00
2018-10-12T05:22:21.506Z,1.00
2018-10-12T05:24:50.709Z,1.00
2018-10-12T05:27:19.905Z,1.00
2018-10-12T05:29:49.092Z,1.00
2018-10-12T05:32:18.279Z,1.00
2018-10-12T05:34:47.475Z,1.00
2018-10-12T05:37:16.676Z,1.00
2018-10-12T05:39:45.866Z,2.40
2018-10-12T05:42:15.160Z,17.40
2018-10-12T05:44:44.339Z,39.40
2018-10-12T05:47:13.527Z,17.70
2018-10-12T05:50:02.451Z,42.20
2018-10-12T05:52:32.945Z,52.10
2018-10-12T05:55:02.559Z,57.20
2018-10-12T05:57:35.035Z,44.30
2018-10-12T06:00:04.267Z,34.20
2018-10-12T06:02:33.406Z,28.90
2018-10-12T06:05:02.613Z,35.30
2018-10-12T06:07:31.823Z,37.20
2018-10-12T06:10:01.056Z,43.90
2018-10-12T06:12:30.203Z,51.80
2018-10-12T06:14:59.431Z,54.50
2018-10-12T06:17:28.632Z,46.80
2018-10-12T06:19:57.815Z,37.20
2018-10-12T06:22:27.008Z,34.70
2018-10-12T06:24:56.183Z,41.50
2018-10-12T06:27:25.367Z,19.80
2018-10-12T06:29:54.555Z,14.10
2018-10-12T06:32:23.743Z,14.40
2018-10-12T06:34:52.940Z,37.50
2018-10-12T06:37:22.119Z,42.30
2018-10-12T06:39:51.315Z,73.70
2018-10-12T06:42:20.504Z,4.10
2018-10-12T06:44:49.714Z,1.00
2018-10-12T06:47:18.895Z,1.00
2018-10-12T06:49:48.088Z,1.00
2018-10-12T06:52:17.275Z,1.00
2018-10-12T06:54:46.459Z,1.00
2018-10-12T06:57:15.655Z,99.90
2018-10-12T06:59:45.123Z,99.90
2018-10-12T07:02:16.746Z,99.90
2018-10-12T07:04:46.682Z,99.90
2018-10-12T07:07:16.152Z,99.90
2018-10-12T07:09:45.576Z,99.90
2018-10-12T07:12:15.491Z,99.90
2018-10-12T07:14:44.896Z,99.90
2018-10-12T07:17:14.068Z,99.90
2018-10-12T07:19:43.391Z,99.90
2018-10-12T07:22:12.567Z,99.90
2018-10-12T07:24:41.747Z,1.00
2018-10-12T07:27:10.928Z,99.90
2018-10-12T07:29:40.115Z,66.50
2018-10-12T07:32:09.290Z,1.00
2018-10-12T07:34:38.480Z,99.90
2018-10-12T07:37:07.680Z,99.90
2018-10-12T07:39:36.842Z,99.90
2018-10-12T07:42:06.036Z,1.00
2018-10-12T07:44:35.219Z,99.90
2018-10-12T07:47:04.408Z,1.00
2018-10-12T07:49:33.588Z,44.60
2018-10-12T07:52:02.776Z,1.00
2018-10-12T07:54:31.959Z,1.00
2018-10-12T07:57:06.407Z,1.00
2018-10-12T07:59:35.588Z,1.00
2018-10-12T08:02:04.781Z,1.00
2018-10-12T08:04:33.966Z,99.90
2018-10-12T08:07:03.199Z,99.90
2018-10-12T08:09:32.431Z,99.90
2018-10-12T08:12:01.577Z,99.90
2018-10-12T08:14:30.756Z,99.90
2018-10-12T08:17:00.359Z,99.90
2018-10-12T08:19:29.555Z,99.90
2018-10-12T08:21:58.755Z,99.90
2018-10-12T08:24:27.936Z,99.90
2018-10-12T08:26:57.143Z,99.90
2018-10-12T08:29:27.570Z,55.10
2018-10-12T08:31:56.983Z,24.50
2018-10-12T08:34:26.154Z,1.00
2018-10-12T08:36:55.335Z,1.00
2018-10-12T08:39:24.516Z,1.00
2018-10-12T08:41:53.728Z,1.00
2018-10-12T08:44:22.875Z,1.00
2018-10-12T08:46:52.067Z,1.00
2018-10-12T08:49:21.250Z,1.00
2018-10-12T08:51:50.425Z,1.00
2018-10-12T08:54:19.604Z,1.00
2018-10-12T08:56:48.787Z,99.90
2018-10-12T08:59:17.964Z,99.90
2018-10-12T09:01:47.147Z,1.00
2018-10-12T09:04:16.366Z,1.00
2018-10-12T09:06:45.519Z,99.90
2018-10-12T09:09:14.701Z,99.90
2018-10-12T09:11:43.940Z,99.90
2018-10-12T09:14:13.135Z,99.90
2018-10-12T09:16:42.335Z,99.90
2018-10-12T09:19:11.519Z,99.90
2018-10-12T09:21:40.742Z,99.90
2018-10-12T09:24:09.900Z,99.90
2018-10-12T09:26:39.088Z,99.90
2018-10-12T09:29:08.299Z,99.90
2018-10-12T09:31:37.516Z,99.90
2018-10-12T09:34:06.712Z,99.90
2018-10-12T09:36:35.941Z,99.90
2018-10-12T09:39:06.407Z,99.90
2018-10-12T09:41:35.604Z,99.90
2018-10-12T09:44:04.795Z,99.90
2018-10-12T09:46:33.984Z,99.90
2018-10-12T09:49:03.203Z,99.90
2018-10-12T09:51:32.397Z,99.90
2018-10-12T09:54:01.600Z,99.90
2018-10-12T09:56:30.780Z,99.90
2018-10-12T09:58:59.980Z,99.90
2018-10-12T10:01:34.344Z,99.90
2018-10-12T10:04:08.663Z,99.90
2018-10-12T10:06:37.843Z,99.90
2018-10-12T10:09:07.061Z,99.90
2018-10-12T10:11:36.224Z,99.90
2018-10-12T10:14:05.420Z,99.90
2018-10-12T10:16:34.598Z,99.90
2018-10-12T10:19:03.825Z,99.90
2018-10-12T10:21:32.983Z,99.90
2018-10-12T10:24:02.175Z,99.90
2018-10-12T10:26:31.695Z,99.90
2018-10-12T10:29:00.568Z,99.90
2018-10-12T10:31:29.746Z,99.90
2018-10-12T10:33:58.935Z,99.90
2018-10-12T10:36:28.140Z,99.90
2018-10-12T10:38:57.327Z,99.90
2018-10-12T10:41:26.520Z,99.90
2018-10-12T10:43:55.715Z,99.90
2018-10-12T10:46:24.937Z,99.90
2018-10-12T10:48:54.116Z,99.90
2018-10-12T10:51:23.319Z,99.90
2018-10-12T10:53:52.521Z,99.90
2018-10-12T10:56:21.714Z,99.90
2018-10-12T10:58:50.899Z,99.90
2018-10-12T11:01:20.091Z,99.60
2018-10-12T11:03:49.280Z,99.80
2018-10-12T11:06:18.499Z,99.70
2018-10-12T11:08:47.675Z,92.00
2018-10-12T11:11:16.864Z,63.30
2018-10-12T11:13:46.052Z,49.20
2018-10-12T11:16:15.239Z,55.80
2018-10-12T11:18:44.435Z,44.90
2018-10-12T11:21:13.624Z,35.90
2018-10-12T11:23:42.807Z,19.30
2018-10-12T11:26:12.005Z,8.10
2018-10-12T11:28:41.181Z,4.40
2018-10-12T11:31:10.372Z,1.00
2018-10-12T11:33:39.552Z,1.00
2018-10-12T11:36:08.763Z,1.00
2018-10-12T11:38:37.947Z,1.00
2018-10-12T11:41:07.787Z,1.00
2018-10-12T11:43:38.192Z,1.00
2018-10-12T11:46:07.495Z,1.00
2018-10-12T11:48:36.663Z,1.00
2018-10-12T11:51:05.842Z,1.00
2018-10-12T11:53:35.036Z,1.00
2018-10-12T11:56:04.218Z,1.00
2018-10-12T11:58:33.399Z,1.00
2018-10-12T12:01:02.604Z,1.00
2018-10-12T12:03:31.735Z,1.00
2018-10-12T12:06:00.924Z,1.00
2018-10-12T12:08:30.115Z,1.00
2018-10-12T12:10:59.314Z,1.00
2018-10-12T12:13:28.562Z,1.00
2018-10-12T12:15:57.719Z,1.00
2018-10-12T12:18:26.908Z,1.00
2018-10-12T12:20:56.111Z,1.00
2018-10-12T12:23:25.311Z,1.00
2018-10-12T12:25:54.506Z,1.00
2018-10-12T12:28:23.699Z,1.00
2018-10-12T12:30:52.988Z,1.00
2018-10-12T12:33:22.163Z,1.00
2018-10-12T12:35:51.828Z,1.00
2018-10-12T12:38:20.628Z,1.00
2018-10-12T12:40:50.036Z,1.00
2018-10-12T12:43:19.248Z,1.00
2018-10-12T12:45:48.483Z,1.00
2018-10-12T12:48:17.834Z,1.00
2018-10-12T12:50:46.883Z,1.00
2018-10-12T12:53:16.092Z,1.00
2018-10-12T12:55:45.283Z,1.00
2018-10-12T12:58:14.495Z,1.00
2018-10-12T13:00:43.771Z,1.00
2018-10-12T13:03:12.974Z,1.00
2018-10-12T13:05:42.175Z,1.00
2018-10-12T13:08:11.374Z,1.00
2018-10-12T13:10:40.659Z,1.00
2018-10-12T13:13:09.863Z,1.00
2018-10-12T13:15:39.063Z,1.00
2018-10-12T13:18:08.266Z,1.00
2018-10-12T13:20:37.463Z,1.00
2018-10-12T13:23:06.745Z,1.00
2018-10-12T13:25:35.957Z,1.00
2018-10-12T13:28:05.171Z,1.00
2018-10-12T13:30:34.355Z,1.00
2018-10-12T13:33:03.591Z,1.00
2018-10-12T13:35:32.775Z,1.00
2018-10-12T13:38:01.988Z,1.00
2018-10-12T13:40:31.183Z,1.00
2018-10-12T13:43:00.417Z,1.00
2018-10-12T13:45:29.614Z,1.00
2018-10-12T13:47:58.815Z,1.00
2018-10-12T13:50:28.015Z,1.00
2018-10-12T13:52:57.218Z,1.00
2018-10-12T13:55:26.444Z,1.00
2018-10-12T13:57:55.655Z,1.00
2018-10-12T14:00:24.960Z,1.00
2018-10-12T14:02:54.099Z,1.00
2018-10-12T14:05:23.291Z,1.00
2018-10-12T14:07:52.576Z,1.00
2018-10-12T14:10:21.743Z,1.00
2018-10-12T14:12:50.928Z,1.00
2018-10-12T14:15:20.370Z,1.00
2018-10-12T14:17:49.535Z,1.00
2018-10-12T14:20:18.708Z,1.00
2018-10-12T14:22:47.871Z,1.00
2018-10-12T14:25:17.087Z,1.00
2018-10-12T14:27:46.229Z,1.00
2018-10-12T14:30:15.400Z,1.00
2018-10-12T14:32:44.563Z,1.00
2018-10-12T14:35:13.731Z,1.00
2018-10-12T14:37:42.958Z,1.00
2018-10-12T14:40:12.080Z,1.00
2018-10-12T14:42:41.247Z,1.00
2018-10-12T14:45:10.428Z,1.00
2018-10-12T14:47:39.595Z,1.00
2018-10-12T14:50:08.783Z,1.00
2018-10-12T14:52:37.947Z,1.00
2018-10-12T14:55:07.351Z,1.00
2018-10-12T14:57:36.534Z,1.00
2018-10-12T15:00:07.777Z,1.00
2018-10-12T15:02:36.935Z,1.00
2018-10-12T15:05:06.536Z,1.00
2018-10-12T15:07:35.763Z,1.00
2018-10-12T15:10:05.276Z,1.00
2018-10-12T15:12:34.684Z,1.00
2018-10-12T15:15:25.684Z,1.00
2018-10-12T15:17:55.798Z,1.00
2018-10-12T15:20:25.064Z,1.00
2018-10-12T15:22:54.354Z,1.00
2018-10-12T15:25:23.639Z,1.00
2018-10-12T15:27:52.788Z,1.00
2018-10-12T15:30:22.008Z,1.00
2018-10-12T15:32:52.031Z,1.00
2018-10-12T15:35:21.238Z,1.00
2018-10-12T15:37:50.527Z,1.00
2018-10-12T15:40:19.660Z,1.00
2018-10-12T15:42:49.030Z,1.00
2018-10-12T15:45:18.084Z,1.00
2018-10-12T15:47:47.315Z,1.00
2018-10-12T15:50:16.523Z,1.00
2018-10-12T15:52:45.732Z,1.00
2018-10-12T15:55:14.938Z,1.00
2018-10-12T15:57:44.148Z,1.00
2018-10-12T16:00:13.352Z,1.00
2018-10-12T16:02:42.655Z,1.00
2018-10-12T16:05:11.867Z,1.00
2018-10-12T16:07:41.060Z,1.00
2018-10-12T16:10:10.227Z,1.00
2018-10-12T16:12:39.420Z,1.00
2018-10-12T16:15:08.599Z,1.00
2018-10-12T16:17:37.787Z,1.00
2018-10-12T16:20:06.960Z,1.00
2018-10-12T16:22:36.230Z,1.00
2018-10-12T16:25:22.407Z,1.00
2018-10-12T16:27:51.580Z,1.00
2018-10-12T16:30:20.763Z,1.00
2018-10-12T16:32:49.948Z,1.00
2018-10-12T16:35:19.150Z,1.00
2018-10-12T16:37:48.336Z,1.00
2018-10-12T16:40:17.572Z,1.00
2018-10-12T16:42:46.781Z,1.00
2018-10-12T16:45:15.976Z,1.00
2018-10-12T16:47:45.155Z,1.00
2018-10-12T16:50:14.339Z,1.00
2018-10-12T16:52:43.530Z,1.00
2018-10-12T16:55:12.727Z,1.00
2018-10-12T16:57:41.967Z,1.00
2018-10-12T17:00:11.096Z,1.00
2018-10-12T17:02:40.309Z,1.00
2018-10-12T17:05:09.475Z,1.00
2018-10-12T17:07:38.696Z,1.00
2018-10-12T17:10:07.899Z,1.00
2018-10-12T17:12:37.186Z,1.00
2018-10-12T17:15:07.677Z,1.00
2018-10-12T17:17:36.935Z,1.00
2018-10-12T17:20:06.253Z,1.00
2018-10-12T17:22:35.847Z,1.00
2018-10-12T17:25:05.373Z,1.00
2018-10-12T17:27:34.583Z,1.00
2018-10-12T17:30:03.795Z,1.00
2018-10-12T17:32:33.006Z,1.00
2018-10-12T17:35:02.222Z,1.00
2018-10-12T17:37:31.451Z,1.00
2018-10-12T17:40:00.672Z,1.00
2018-10-12T17:42:29.875Z,1.00
2018-10-12T17:44:59.087Z,1.00
2018-10-12T17:47:28.295Z,1.00
2018-10-12T17:49:57.504Z,1.00
2018-10-12T17:52:26.703Z,1.00
2018-10-12T17:54:55.911Z,1.00
2018-10-12T17:57:26.664Z,1.40
2018-10-12T17:59:56.101Z,2.70
2018-10-12T18:02:25.275Z,3.10
2018-10-12T18:04:54.491Z,5.00
2018-10-12T18:07:23.696Z,6.00
2018-10-12T18:09:52.980Z,6.60
2018-10-12T18:12:22.191Z,8.40
2018-10-12T18:14:51.403Z,13.50
2018-10-12T18:17:20.616Z,17.00
2018-10-12T18:19:49.907Z,19.70
2018-10-12T18:22:19.052Z,22.50
2018-10-12T18:24:48.280Z,23.50
2018-10-12T18:27:17.497Z,24.50
2018-10-12T18:29:46.699Z,27.90
2018-10-12T18:32:15.995Z,28.20
2018-10-12T18:34:45.211Z,27.10
2018-10-12T18:37:14.419Z,27.70
2018-10-12T18:39:43.631Z,26.80
2018-10-12T18:42:12.850Z,27.90
2018-10-12T18:44:42.039Z,31.90
2018-10-12T18:47:11.215Z,32.50
2018-10-12T18:49:40.402Z,34.20
2018-10-12T18:52:09.907Z,37.50
2018-10-12T18:54:39.082Z,71.10
2018-10-12T18:57:08.302Z,66.00
2018-10-12T18:59:37.543Z,71.80
2018-10-12T19:02:06.663Z,89.00
2018-10-12T19:04:35.924Z,94.10
2018-10-12T19:07:05.090Z,96.60
2018-10-12T19:09:34.313Z,96.50
2018-10-12T19:12:03.527Z,96.50
2018-10-12T19:14:32.799Z,96.60
2018-10-12T19:17:02.033Z,96.50
2018-10-12T19:19:31.288Z,96.70
2018-10-12T19:22:00.493Z,96.40
2018-10-12T19:24:29.764Z,96.50
2018-10-12T19:26:58.985Z,96.50
2018-10-12T19:29:28.197Z,96.50
2018-10-12T19:31:57.489Z,96.70
2018-10-12T19:34:26.640Z,96.60
2018-10-12T19:36:55.864Z,96.50
2018-10-12T19:39:25.073Z,96.40
2018-10-12T19:41:54.299Z,96.40
2018-10-12T19:44:23.516Z,92.40
2018-10-12T19:46:52.731Z,98.30
2018-10-12T19:49:21.948Z,99.90
2018-10-12T19:51:51.182Z,99.20
2018-10-12T19:54:20.387Z,99.90
2018-10-12T19:56:49.967Z,99.90
2018-10-12T19:59:19.322Z,99.90
2018-10-12T20:01:48.487Z,99.90
2018-10-12T20:04:17.735Z,99.90
2018-10-12T20:06:46.951Z,99.90
2018-10-12T20:09:16.168Z,99.90
2018-10-12T20:11:45.393Z,99.90
2018-10-12T20:14:14.612Z,99.90
2018-10-12T20:16:43.854Z,99.90
2018-10-12T20:19:13.090Z,99.90
2018-10-12T20:21:42.325Z,99.90
2018-10-12T20:24:11.541Z,99.90
2018-10-12T20:26:40.759Z,99.90
2018-10-12T20:29:10.073Z,99.90
2018-10-12T20:31:39.333Z,99.90
2018-10-12T20:34:08.525Z,99.90
2018-10-12T20:36:37.811Z,99.90
2018-10-12T20:39:09.399Z,99.90
2018-10-12T20:41:38.671Z,99.90
2018-10-12T20:44:08.262Z,99.90
2018-10-12T20:46:37.723Z,99.90
2018-10-12T20:49:06.991Z,99.90
2018-10-12T20:51:36.550Z,99.90
2018-10-12T20:54:05.780Z,99.90
2018-10-12T20:56:34.997Z,99.90
2018-10-12T20:59:04.215Z,99.90
2018-10-12T21:01:33.435Z,99.90
2018-10-12T21:04:02.989Z,99.90
2018-10-12T21:06:32.131Z,99.90
2018-10-12T21:09:01.353Z,99.90
2018-10-12T21:11:30.600Z,99.90
2018-10-12T21:13:59.913Z,99.90
2018-10-12T21:16:29.160Z,99.90
2018-10-12T21:18:58.371Z,99.90
2018-10-12T21:21:27.671Z,99.90
2018-10-12T21:23:57.008Z,99.90
2018-10-12T21:26:26.236Z,99.90
2018-10-12T21:28:55.455Z,99.90
2018-10-12T21:31:24.682Z,99.90
2018-10-12T21:33:53.915Z,99.90
2018-10-12T21:36:23.216Z,99.90
2018-10-12T21:38:52.437Z,1.00
2018-10-12T21:41:21.651Z,1.00
2018-10-12T21:43:50.851Z,1.00
2018-10-12T21:46:20.132Z,1.00
2018-10-12T21:48:49.391Z,1.00
2018-10-12T21:51:18.811Z,1.00
2018-10-12T21:53:48.114Z,1.00
2018-10-12T21:56:17.335Z,1.00
2018-10-12T21:58:46.629Z,1.00
2018-10-12T22:01:15.879Z,1.00
2018-10-12T22:03:45.092Z,1.00
2018-10-12T22:06:14.371Z,1.00
2018-10-12T22:08:48.932Z,1.00
2018-10-12T22:11:18.135Z,1.00
2018-10-12T22:13:47.373Z,1.00
2018-10-12T22:16:16.512Z,1.00
2018-10-12T22:18:45.827Z,2.90
2018-10-12T22:21:15.007Z,3.40
2018-10-12T22:23:44.195Z,99.90
2018-10-12T22:26:13.453Z,1.00
2018-10-12T22:28:42.599Z,1.00
2018-10-12T22:31:11.787Z,1.00
2018-10-12T22:33:40.962Z,99.90
2018-10-12T22:36:10.218Z,1.00
2018-10-12T22:38:39.399Z,99.90
2018-10-12T22:41:08.594Z,1.00
2018-10-12T22:43:37.768Z,45.80
2018-10-12T22:46:07.065Z,1.00
2018-10-12T22:48:36.248Z,99.90
2018-10-12T22:51:05.439Z,99.90
2018-10-12T22:53:34.624Z,99.90
2018-10-12T22:56:03.808Z,99.90
2018-10-12T22:58:32.992Z,99.90
2018-10-12T23:01:02.179Z,99.90
2018-10-12T23:03:31.356Z,1.00
2018-10-12T23:06:00.550Z,99.90
2018-10-12T23:08:29.735Z,99.90
2018-10-12T23:10:58.919Z,1.00
2018-10-12T23:13:28.090Z,1.00
2018-10-12T23:15:57.275Z,1.00
2018-10-12T23:18:26.487Z,1.00
2018-10-12T23:20:55.851Z,1.00
2018-10-12T23:23:25.027Z,1.00
2018-10-12T23:25:54.235Z,1.00
2018-10-12T23:28:23.414Z,1.00
2018-10-12T23:30:52.589Z,1.00
2018-10-12T23:33:39.032Z,1.00
2018-10-12T23:36:08.382Z,1.00
2018-10-12T23:38:37.545Z,1.00
2018-10-12T23:41:06.711Z,1.00
2018-10-12T23:43:36.032Z,1.00
2018-10-12T23:46:05.202Z,1.00
2018-10-12T23:48:34.388Z,1.00
2018-10-12T23:51:03.558Z,1.00
2018-10-12T23:53:32.739Z,1.00
2018-10-12T23:56:01.983Z,1.00
2018-10-12T23:58:31.104Z,1.00
